Time;durP1;ratioP1;P1;durP2;ratioP2;P2;SDS_P1;SDS_P2;PMS_P1;PMS_P2;Temp;Humidity;BMP_temperature;BMP_pressure;BME280_temperature;BME280_humidity;BME280_pressure;Samples;Min_cycle;Max_cycle;Signal;HPM_P1;HPM_P2
2022/03/10 00:00:29;;;;;;;15.50;9.18;;;;;10.40;102168.00;;;;5044749;28;20245;-81
2022/03/10 00:02:58;;;;;;;13.77;8.27;;;;;10.40;102168.00;;;;5048737;28;20191;-80
2022/03/10 00:05:25;;;;;;;11.48;8.18;;;;;10.40;102168.00;;;;5046195;28;20218;-81
2022/03/10 00:07:52;;;;;;;13.05;8.43;;;;;10.30;102164.00;;;;5047306;28;20188;-78
2022/03/10 00:10:20;;;;;;;13.85;9.27;;;;;10.30;102164.00;;;;5045919;28;20696;-79
2022/03/10 00:12:51;;;;;;;16.58;8.27;;;;;10.30;102168.00;;;;5050151;28;20203;-78
2022/03/10 00:15:21;;;;;;;12.60;8.52;;;;;10.20;102165.00;;;;5046781;28;20579;-79
2022/03/10 00:17:48;;;;;;;12.65;7.78;;;;;10.20;102164.00;;;;5047832;28;20253;-79
2022/03/10 00:20:17;;;;;;;12.70;8.88;;;;;10.20;102169.00;;;;5036968;28;20250;-79
2022/03/10 00:22:48;;;;;;;16.52;9.70;;;;;10.20;102164.00;;;;5034904;28;20298;-78
2022/03/10 00:25:16;;;;;;;15.57;8.93;;;;;10.20;102164.00;;;;5031830;28;20200;-79
2022/03/10 00:27:44;;;;;;;13.43;7.82;;;;;10.10;102169.00;;;;5034809;28;20211;-78
2022/03/10 00:30:12;;;;;;;12.77;8.00;;;;;10.10;102174.00;;;;5036425;28;20298;-81
2022/03/10 00:32:45;;;;;;;12.98;8.20;;;;;10.10;102169.00;;;;5031317;28;20683;-79
2022/03/10 00:35:18;;;;;;;13.80;8.15;;;;;10.10;102171.00;;;;5034097;28;20669;-80
2022/03/10 00:37:47;;;;;;;14.52;8.70;;;;;10.10;102162.00;;;;5033073;28;20667;-80
2022/03/10 00:40:14;;;;;;;13.68;8.43;;;;;10.10;102165.00;;;;5033762;28;20239;-79
2022/03/10 00:42:43;;;;;;;16.60;9.40;;;;;10.10;102170.00;;;;5023478;28;20203;-79
2022/03/10 00:45:11;;;;;;;13.10;8.27;;;;;10.00;102172.00;;;;5037350;28;20199;-80
2022/03/10 00:47:39;;;;;;;13.57;8.10;;;;;10.00;102176.00;;;;5040097;28;20187;-80
2022/03/10 00:50:08;;;;;;;13.88;9.25;;;;;10.00;102177.00;;;;5036819;28;20616;-79
2022/03/10 00:52:41;;;;;;;12.30;8.32;;;;;10.00;102179.00;;;;5034694;28;20204;-79
2022/03/10 00:55:10;;;;;;;15.25;8.27;;;;;10.00;102180.00;;;;5027836;28;20204;-79
2022/03/10 00:57:37;;;;;;;12.23;7.68;;;;;10.00;102173.00;;;;5038091;28;20216;-79
2022/03/10 01:00:06;;;;;;;14.95;9.30;;;;;10.00;102165.00;;;;5029188;28;20279;-80
2022/03/10 01:02:34;;;;;;;13.20;8.20;;;;;10.00;102167.00;;;;5039186;28;20203;-80
2022/03/10 01:05:01;;;;;;;13.68;8.82;;;;;10.00;102166.00;;;;5032982;28;20202;-80
2022/03/10 01:07:28;;;;;;;14.38;8.52;;;;;10.00;102170.00;;;;5033949;28;20185;-80
2022/03/10 01:09:57;;;;;;;13.38;8.00;;;;;9.90;102168.00;;;;5035915;28;20199;-79
2022/03/10 01:12:24;;;;;;;15.00;9.55;;;;;9.90;102163.00;;;;5032768;28;20204;-80
2022/03/10 01:14:52;;;;;;;12.82;8.13;;;;;9.90;102169.00;;;;5038321;28;20188;-80
2022/03/10 01:17:19;;;;;;;13.35;8.43;;;;;9.90;102167.00;;;;5032404;28;20838;-80
2022/03/10 01:19:47;;;;;;;13.00;8.45;;;;;9.90;102162.00;;;;5037373;28;20314;-80
2022/03/10 01:22:14;;;;;;;12.27;8.57;;;;;9.90;102159.00;;;;5049796;28;20192;-80
2022/03/10 01:24:42;;;;;;;13.98;8.75;;;;;9.90;102159.00;;;;5046022;28;20195;-80
2022/03/10 01:27:11;;;;;;;13.68;8.82;;;;;9.90;102160.00;;;;5046710;28;20203;-79
2022/03/10 01:29:38;;;;;;;21.77;9.68;;;;;9.90;102160.00;;;;5045100;28;20200;-79
2022/03/10 01:32:06;;;;;;;16.13;9.95;;;;;9.80;102158.00;;;;5044796;28;20616;-79
2022/03/10 01:34:33;;;;;;;14.85;9.18;;;;;9.80;102166.00;;;;5045981;28;20204;-79
2022/03/10 01:37:00;;;;;;;13.38;8.10;;;;;9.80;102163.00;;;;5040598;28;20219;-80
2022/03/10 01:39:27;;;;;;;13.02;7.85;;;;;9.80;102159.00;;;;5046122;28;20192;-80
2022/03/10 01:41:55;;;;;;;14.00;8.52;;;;;9.80;102165.00;;;;5045525;28;20191;-80
2022/03/10 01:44:24;;;;;;;13.13;8.48;;;;;9.80;102160.00;;;;5045475;28;20226;-79
2022/03/10 01:46:51;;;;;;;13.80;8.32;;;;;9.80;102157.00;;;;5044946;28;20693;-80
2022/03/10 01:49:18;;;;;;;12.35;8.02;;;;;9.80;102163.00;;;;5046650;28;20241;-80
2022/03/10 01:51:46;;;;;;;12.95;7.82;;;;;9.70;102156.00;;;;5044151;28;20666;-80
2022/03/10 01:54:14;;;;;;;13.75;8.55;;;;;9.70;102163.00;;;;5045993;28;20196;-79
2022/03/10 01:56:42;;;;;;;12.73;8.07;;;;;9.70;102164.00;;;;5044133;28;20230;-80
2022/03/10 01:59:11;;;;;;;12.70;7.88;;;;;9.70;102166.00;;;;5047056;28;20249;-80
2022/03/10 02:01:39;;;;;;;12.50;7.90;;;;;9.60;102170.00;;;;5051041;28;20257;-80
2022/03/10 02:04:07;;;;;;;12.43;8.43;;;;;9.70;102165.00;;;;5049946;28;20206;-80
2022/03/10 02:06:34;;;;;;;14.98;8.95;;;;;9.60;102171.00;;;;5051041;28;20242;-80
2022/03/10 02:11:46;;;;;;;10.98;7.63;;;;;9.60;102163.00;;;;5049441;28;20205;-80
2022/03/10 02:19:45;;;;;;;16.05;8.40;;;;;9.50;102166.00;;;;5040378;28;20243;-80
2022/03/10 02:22:15;;;;;;;11.68;7.78;;;;;9.50;102167.00;;;;5035953;28;20192;-80
2022/03/10 02:24:44;;;;;;;13.02;8.23;;;;;9.50;102162.00;;;;5032942;28;20222;-80
2022/03/10 02:27:16;;;;;;;12.55;8.35;;;;;9.40;102161.00;;;;5032664;28;20193;-80
2022/03/10 02:29:45;;;;;;;13.25;8.60;;;;;9.50;102166.00;;;;5034952;28;20577;-80
2022/03/10 02:32:12;;;;;;;14.57;8.50;;;;;9.50;102171.00;;;;5031461;28;20242;-79
2022/03/10 02:34:41;;;;;;;15.48;9.02;;;;;9.40;102159.00;;;;5030712;28;20204;-80
2022/03/10 02:37:09;;;;;;;14.02;8.55;;;;;9.40;102163.00;;;;5033417;28;20228;-80
2022/03/10 02:39:38;;;;;;;14.00;8.88;;;;;9.40;102160.00;;;;5032792;28;20195;-80
2022/03/10 02:42:09;;;;;;;13.27;8.02;;;;;9.40;102165.00;;;;5029850;28;20207;-80
2022/03/10 02:44:42;;;;;;;14.13;8.35;;;;;9.30;102161.00;;;;5032242;28;20203;-80
2022/03/10 02:47:09;;;;;;;14.38;8.10;;;;;9.40;102171.00;;;;5043726;28;20283;-80
2022/03/10 02:49:39;;;;;;;18.35;9.30;;;;;9.30;102156.00;;;;5041582;28;20203;-79
2022/03/10 02:52:07;;;;;;;12.57;8.52;;;;;9.30;102164.00;;;;5029266;28;20196;-79
2022/03/10 02:54:36;;;;;;;12.32;7.90;;;;;9.30;102161.00;;;;5036682;28;20210;-79
2022/03/10 02:57:04;;;;;;;10.50;7.53;;;;;9.30;102159.00;;;;5042330;28;20878;-80
2022/03/10 02:59:31;;;;;;;14.82;9.00;;;;;9.30;102157.00;;;;5038895;28;20195;-80
2022/03/10 03:01:59;;;;;;;15.57;8.38;;;;;9.20;102161.00;;;;5038146;28;20187;-80
2022/03/10 03:04:26;;;;;;;14.90;8.23;;;;;9.20;102157.00;;;;5037513;28;20234;-79
2022/03/10 03:06:53;;;;;;;13.50;8.50;;;;;9.20;102166.00;;;;5037475;28;20211;-80
2022/03/10 03:09:21;;;;;;;11.70;7.80;;;;;9.20;102166.00;;;;5037258;28;20208;-80
2022/03/10 03:11:49;;;;;;;13.48;8.35;;;;;9.20;102166.00;;;;5036980;28;20561;-80
2022/03/10 03:14:17;;;;;;;14.52;9.35;;;;;9.20;102167.00;;;;5035803;28;20207;-80
2022/03/10 03:16:45;;;;;;;12.73;8.60;;;;;9.10;102165.00;;;;5027349;28;20224;-80
2022/03/10 03:19:12;;;;;;;12.82;8.35;;;;;9.10;102178.00;;;;5039162;28;20227;-80
2022/03/10 03:21:39;;;;;;;12.80;8.65;;;;;9.10;102176.00;;;;5032294;28;20208;-79
2022/03/10 03:24:07;;;;;;;12.98;8.48;;;;;9.10;102178.00;;;;5037740;28;20608;-80
2022/03/10 03:26:34;;;;;;;15.20;8.40;;;;;9.10;102180.00;;;;5042121;28;20223;-80
2022/03/10 03:29:03;;;;;;;15.80;9.55;;;;;9.10;102189.00;;;;5042323;28;20188;-80
2022/03/10 03:31:30;;;;;;;14.48;9.07;;;;;9.10;102182.00;;;;5031344;28;21115;-80
2022/03/10 03:33:57;;;;;;;12.43;8.25;;;;;9.10;102177.00;;;;5037093;28;20211;-80
2022/03/10 03:36:25;;;;;;;15.10;8.90;;;;;9.00;102183.00;;;;5035322;28;20227;-80
2022/03/10 03:38:53;;;;;;;15.25;8.45;;;;;9.00;102185.00;;;;5035879;28;20193;-80
2022/03/10 03:41:20;;;;;;;14.30;8.93;;;;;9.00;102187.00;;;;5036001;28;20674;-80
2022/03/10 03:43:47;;;;;;;13.70;8.10;;;;;9.00;102193.00;;;;5034810;28;20200;-80
2022/03/10 03:46:16;;;;;;;12.63;7.85;;;;;9.00;102199.00;;;;5035121;28;20189;-80
2022/03/10 03:48:43;;;;;;;13.50;8.65;;;;;9.00;102199.00;;;;5030220;28;20909;-80
2022/03/10 03:51:10;;;;;;;16.48;8.48;;;;;9.00;102199.00;;;;5035389;28;20203;-80
2022/03/10 03:53:38;;;;;;;14.40;8.77;;;;;9.00;102201.00;;;;5038561;28;20208;-80
2022/03/10 03:56:05;;;;;;;14.13;8.68;;;;;9.00;102206.00;;;;5038155;28;20185;-80
2022/03/10 03:58:33;;;;;;;11.88;7.65;;;;;8.90;102198.00;;;;5039672;28;20191;-80
2022/03/10 04:01:00;;;;;;;12.45;8.43;;;;;8.90;102200.00;;;;5038435;28;20240;-80
2022/03/10 04:03:28;;;;;;;13.63;8.52;;;;;8.90;102202.00;;;;5036638;28;20200;-80
2022/03/10 04:05:56;;;;;;;13.80;7.72;;;;;8.90;102201.00;;;;5035501;28;20199;-80
2022/03/10 04:08:23;;;;;;;13.90;8.27;;;;;8.90;102198.00;;;;5031930;28;20239;-80
2022/03/10 04:10:52;;;;;;;14.20;8.60;;;;;8.90;102203.00;;;;5036740;28;20195;-80
2022/03/10 04:13:22;;;;;;;13.00;8.35;;;;;8.90;102202.00;;;;5030151;28;20196;-80
2022/03/10 04:15:49;;;;;;;15.00;8.23;;;;;8.80;102197.00;;;;5034739;28;20575;-80
2022/03/10 04:18:17;;;;;;;12.65;7.90;;;;;8.80;102202.00;;;;5036545;28;20221;-79
2022/03/10 04:20:47;;;;;;;13.10;8.02;;;;;8.80;102205.00;;;;5045332;28;20259;-80
2022/03/10 04:23:15;;;;;;;13.75;9.10;;;;;8.80;102204.00;;;;5048412;28;20282;-80
2022/03/10 04:25:43;;;;;;;11.82;7.97;;;;;8.80;102200.00;;;;5046989;28;20203;-80
2022/03/10 04:28:10;;;;;;;13.77;8.32;;;;;8.80;102204.00;;;;5046650;28;20202;-80
2022/03/10 04:30:38;;;;;;;14.63;8.23;;;;;8.80;102198.00;;;;5044388;28;20261;-80
2022/03/10 04:33:06;;;;;;;13.35;9.45;;;;;8.80;102203.00;;;;5046642;28;20196;-80
2022/03/10 04:35:33;;;;;;;13.35;8.70;;;;;8.80;102205.00;;;;5047356;28;20673;-80
2022/03/10 04:38:02;;;;;;;10.82;7.88;;;;;8.70;102217.00;;;;5048597;28;20689;-80
2022/03/10 04:40:31;;;;;;;11.68;8.10;;;;;8.70;102210.00;;;;5038640;28;20650;-79
2022/03/10 04:42:59;;;;;;;13.68;8.85;;;;;8.70;102214.00;;;;5047966;28;20261;-80
2022/03/10 04:45:26;;;;;;;12.50;8.35;;;;;8.70;102210.00;;;;5045016;28;20196;-80
2022/03/10 04:47:54;;;;;;;14.98;9.35;;;;;8.70;102203.00;;;;5046025;28;20196;-80
2022/03/10 04:50:21;;;;;;;12.02;7.70;;;;;8.70;102213.00;;;;5046308;28;20195;-80
2022/03/10 04:52:49;;;;;;;13.25;8.60;;;;;8.70;102191.00;;;;5047681;28;20206;-80
2022/03/10 04:55:17;;;;;;;12.18;8.38;;;;;8.70;102199.00;;;;5047179;28;20196;-80
2022/03/10 04:57:44;;;;;;;12.70;8.63;;;;;8.60;102205.00;;;;5046460;28;20423;-80
2022/03/10 05:00:14;;;;;;;14.10;8.63;;;;;8.60;102204.00;;;;5045361;28;20188;-80
2022/03/10 05:02:41;;;;;;;11.82;7.63;;;;;8.60;102202.00;;;;5046386;28;20195;-80
2022/03/10 05:05:11;;;;;;;15.13;8.73;;;;;8.60;102210.00;;;;5046263;28;20261;-80
2022/03/10 05:07:38;;;;;;;13.30;8.65;;;;;8.60;102197.00;;;;5047655;28;20230;-80
2022/03/10 05:10:06;;;;;;;16.20;8.57;;;;;8.60;102201.00;;;;5046259;28;20195;-80
2022/03/10 05:12:43;;;;;;;12.30;8.05;;;;;8.60;102197.00;;;;5046970;28;20195;-80
2022/03/10 05:15:10;;;;;;;12.23;8.38;;;;;8.60;102201.00;;;;5042408;28;20200;-80
2022/03/10 05:17:38;;;;;;;14.25;8.90;;;;;8.50;102196.00;;;;5045457;28;20223;-80
2022/03/10 05:20:06;;;;;;;14.23;8.90;;;;;8.50;102199.00;;;;5037104;28;20606;-80
2022/03/10 05:22:43;;;;;;;12.85;7.57;;;;;8.50;102204.00;;;;5035818;28;20254;-81
2022/03/10 05:25:11;;;;;;;11.80;7.80;;;;;8.50;102201.00;;;;5029358;28;20274;-80
2022/03/10 05:27:39;;;;;;;13.23;8.25;;;;;8.50;102200.00;;;;5037437;28;20192;-81
2022/03/10 05:30:08;;;;;;;15.77;8.38;;;;;8.50;102206.00;;;;5035069;28;20196;-80
2022/03/10 05:32:35;;;;;;;12.52;7.65;;;;;8.50;102204.00;;;;5030898;28;20717;-80
2022/03/10 05:35:03;;;;;;;13.48;8.77;;;;;8.50;102207.00;;;;5026585;28;20204;-80
2022/03/10 05:37:30;;;;;;;10.68;7.00;;;;;8.50;102204.00;;;;5019487;28;20784;-80
2022/03/10 05:39:58;;;;;;;12.98;8.02;;;;;8.50;102200.00;;;;5014639;28;20204;-80
2022/03/10 05:42:25;;;;;;;12.02;7.75;;;;;8.50;102204.00;;;;5020311;28;20197;-80
2022/03/10 05:44:54;;;;;;;13.05;8.20;;;;;8.40;102199.00;;;;5011714;28;20199;-81
2022/03/10 05:47:21;;;;;;;11.85;7.70;;;;;8.50;102201.00;;;;5023521;28;20211;-81
2022/03/10 05:49:49;;;;;;;11.98;7.22;;;;;8.40;102191.00;;;;5025421;28;20192;-81
2022/03/10 05:52:16;;;;;;;12.77;8.20;;;;;8.40;102194.00;;;;5016840;28;20292;-82
2022/03/10 05:54:44;;;;;;;15.05;8.32;;;;;8.40;102191.00;;;;5016839;28;20207;-82
2022/03/10 05:57:11;;;;;;;12.85;8.02;;;;;8.40;102197.00;;;;5027532;28;20228;-81
2022/03/10 05:59:38;;;;;;;12.30;7.63;;;;;8.40;102191.00;;;;5018305;28;20655;-81
2022/03/10 06:02:07;;;;;;;13.57;8.88;;;;;8.40;102195.00;;;;5038743;28;20192;-83
2022/03/10 06:04:34;;;;;;;13.77;8.38;;;;;8.40;102197.00;;;;5034393;28;20667;-83
2022/03/10 06:07:01;;;;;;;14.30;9.43;;;;;8.40;102199.00;;;;5039341;28;20201;-83
2022/03/10 06:09:29;;;;;;;12.68;7.43;;;;;8.40;102207.00;;;;5030443;28;20246;-82
2022/03/10 06:11:56;;;;;;;11.73;7.30;;;;;8.40;102206.00;;;;5017306;28;20201;-81
2022/03/10 06:14:23;;;;;;;13.20;7.88;;;;;8.40;102208.00;;;;5025903;28;20189;-80
2022/03/10 06:16:50;;;;;;;12.77;8.10;;;;;8.40;102209.00;;;;5018976;28;20198;-81
2022/03/10 06:19:19;;;;;;;13.82;8.07;;;;;8.40;102217.00;;;;5014275;28;20235;-81
2022/03/10 06:21:47;;;;;;;12.55;8.07;;;;;8.40;102219.00;;;;5040673;28;20196;-81
2022/03/10 06:24:14;;;;;;;14.07;8.90;;;;;8.40;102215.00;;;;5045940;28;20617;-81
2022/03/10 06:26:42;;;;;;;12.48;8.15;;;;;8.40;102226.00;;;;5048376;28;20261;-81
2022/03/10 06:29:13;;;;;;;12.55;7.68;;;;;8.40;102215.00;;;;5047103;28;20210;-81
2022/03/10 06:31:40;;;;;;;11.55;7.38;;;;;8.40;102223.00;;;;5047651;28;20204;-81
2022/03/10 06:34:07;;;;;;;12.85;8.30;;;;;8.50;102225.00;;;;5047043;28;20668;-81
2022/03/10 06:36:36;;;;;;;13.35;8.48;;;;;8.50;102223.00;;;;5047467;28;20573;-81
2022/03/10 06:39:03;;;;;;;13.60;7.72;;;;;8.50;102221.00;;;;5038618;28;20226;-81
2022/03/10 06:41:30;;;;;;;12.30;7.25;;;;;8.50;102223.00;;;;5048354;28;20204;-81
2022/03/10 06:43:58;;;;;;;13.13;7.82;;;;;8.50;102233.00;;;;5043600;28;20663;-83
2022/03/10 06:46:25;;;;;;;12.85;8.23;;;;;8.60;102228.00;;;;5031504;28;20208;-82
2022/03/10 06:48:52;;;;;;;13.40;8.80;;;;;8.60;102230.00;;;;5046596;28;20192;-83
2022/03/10 06:51:19;;;;;;;12.07;7.57;;;;;8.60;102229.00;;;;5051054;28;20207;-82
2022/03/10 06:53:48;;;;;;;13.55;7.93;;;;;8.70;102229.00;;;;5050758;28;20661;-83
2022/03/10 06:56:15;;;;;;;13.27;8.70;;;;;8.70;102225.00;;;;5050599;28;20203;-81
2022/03/10 06:58:43;;;;;;;15.98;9.23;;;;;8.80;102233.00;;;;5038392;28;20282;-81
2022/03/10 07:01:10;;;;;;;13.38;8.35;;;;;8.80;102221.00;;;;5036551;28;20199;-80
2022/03/10 07:03:38;;;;;;;13.77;7.72;;;;;8.90;102223.00;;;;5051166;28;20199;-80
2022/03/10 07:06:05;;;;;;;13.35;8.38;;;;;8.90;102234.00;;;;5034412;28;20218;-79
2022/03/10 07:08:32;;;;;;;13.85;8.30;;;;;9.00;102225.00;;;;5055917;28;20196;-79
2022/03/10 07:11:01;;;;;;;11.77;7.82;;;;;9.00;102222.00;;;;5064537;28;20194;-80
2022/03/10 07:13:28;;;;;;;12.68;7.45;;;;;9.10;102220.00;;;;5050489;28;20669;-79
2022/03/10 07:15:55;;;;;;;13.75;8.73;;;;;9.20;102218.00;;;;5032986;28;20216;-79
2022/03/10 07:18:23;;;;;;;14.57;8.43;;;;;9.30;102228.00;;;;5030280;28;20228;-80
2022/03/10 07:20:50;;;;;;;13.60;8.68;;;;;9.40;102225.00;;;;5036022;28;20238;-79
2022/03/10 07:23:17;;;;;;;15.63;8.63;;;;;9.40;102227.00;;;;5050323;28;20576;-80
2022/03/10 07:25:45;;;;;;;13.77;8.38;;;;;9.50;102234.00;;;;5050395;28;20206;-79
2022/03/10 07:28:13;;;;;;;15.55;8.70;;;;;9.60;102232.00;;;;5049956;28;20211;-79
2022/03/10 07:30:40;;;;;;;13.68;8.60;;;;;9.70;102227.00;;;;5050516;28;20227;-79
2022/03/10 07:33:08;;;;;;;13.88;8.77;;;;;9.90;102229.00;;;;5050099;28;20199;-80
2022/03/10 07:35:35;;;;;;;16.67;9.80;;;;;9.90;102228.00;;;;5050656;28;20326;-80
2022/03/10 07:38:02;;;;;;;13.80;9.15;;;;;10.10;102232.00;;;;5049496;28;20227;-80
2022/03/10 07:40:29;;;;;;;15.00;8.15;;;;;10.20;102232.00;;;;5050239;28;20191;-80
2022/03/10 07:42:57;;;;;;;14.70;9.35;;;;;10.20;102232.00;;;;5050266;28;20200;-79
2022/03/10 07:45:25;;;;;;;16.55;8.50;;;;;10.40;102232.00;;;;5050160;28;20665;-80
2022/03/10 07:47:53;;;;;;;14.10;7.97;;;;;10.50;102238.00;;;;5049176;28;20210;-79
2022/03/10 07:50:20;;;;;;;15.13;9.15;;;;;10.60;102243.00;;;;5049919;28;20299;-80
2022/03/10 07:52:47;;;;;;;15.70;9.57;;;;;10.70;102238.00;;;;5050782;28;20211;-80
2022/03/10 07:55:15;;;;;;;16.15;8.10;;;;;10.80;102237.00;;;;5048663;28;20199;-80
2022/03/10 07:57:42;;;;;;;13.77;8.02;;;;;10.90;102238.00;;;;5049560;28;20697;-79
2022/03/10 08:00:11;;;;;;;16.58;9.35;;;;;11.00;102238.00;;;;5041226;28;20199;-82
2022/03/10 08:02:39;;;;;;;17.77;9.07;;;;;11.10;102233.00;;;;5045857;28;20207;-82
2022/03/10 08:05:07;;;;;;;14.00;8.63;;;;;11.20;102234.00;;;;5048588;28;20199;-82
2022/03/10 08:07:35;;;;;;;15.70;9.13;;;;;11.30;102242.00;;;;5044449;28;20204;-82
2022/03/10 08:10:03;;;;;;;16.02;9.70;;;;;11.40;102236.00;;;;5029056;28;20247;-82
2022/03/10 08:12:32;;;;;;;13.38;8.02;;;;;11.50;102239.00;;;;5037559;28;20223;-81
2022/03/10 08:14:59;;;;;;;14.93;8.98;;;;;11.60;102247.00;;;;5047914;28;20202;-83
2022/03/10 08:17:27;;;;;;;13.52;8.52;;;;;11.70;102244.00;;;;5052440;28;20200;-83
2022/03/10 08:19:56;;;;;;;16.55;8.65;;;;;11.70;102247.00;;;;5034919;28;20236;-81
2022/03/10 08:22:24;;;;;;;13.77;8.88;;;;;11.80;102253.00;;;;5044322;28;20204;-81
2022/03/10 08:24:52;;;;;;;14.63;9.38;;;;;11.90;102247.00;;;;5047964;28;20206;-81
2022/03/10 08:27:19;;;;;;;14.95;8.45;;;;;12.00;102245.00;;;;5046206;28;20413;-82
2022/03/10 08:29:46;;;;;;;16.00;8.85;;;;;12.10;102237.00;;;;5039382;28;20203;-81
2022/03/10 08:32:14;;;;;;;13.25;8.93;;;;;12.20;102241.00;;;;5034719;28;20559;-81
2022/03/10 08:34:41;;;;;;;12.20;8.50;;;;;12.30;102230.00;;;;5047853;28;20669;-81
2022/03/10 08:37:10;;;;;;;17.27;10.63;;;;;12.30;102225.00;;;;5038570;28;20230;-81
2022/03/10 08:39:37;;;;;;;15.70;9.43;;;;;12.50;102238.00;;;;5042813;28;20627;-81
2022/03/10 08:42:05;;;;;;;12.50;8.65;;;;;12.60;102232.00;;;;5031967;28;20200;-81
2022/03/10 08:44:32;;;;;;;13.27;8.32;;;;;12.60;102234.00;;;;5033520;28;20211;-81
2022/03/10 08:46:59;;;;;;;14.20;8.65;;;;;12.70;102227.00;;;;5044276;28;20200;-81
2022/03/10 08:49:27;;;;;;;14.52;9.30;;;;;12.80;102227.00;;;;5044783;28;20199;-81
2022/03/10 08:51:55;;;;;;;13.48;8.48;;;;;12.90;102228.00;;;;5041747;28;20196;-81
2022/03/10 08:54:24;;;;;;;12.70;8.55;;;;;13.00;102232.00;;;;5043740;28;20209;-81
2022/03/10 08:56:51;;;;;;;16.75;10.20;;;;;13.10;102230.00;;;;5033843;28;20762;-80
2022/03/10 08:59:20;;;;;;;14.98;9.48;;;;;13.20;102223.00;;;;5046599;28;21109;-79
2022/03/10 09:01:47;;;;;;;13.55;8.80;;;;;13.30;102229.00;;;;5047827;28;20658;-77
2022/03/10 09:04:14;;;;;;;13.93;9.48;;;;;13.40;102230.00;;;;5048520;28;20199;-79
2022/03/10 09:06:42;;;;;;;14.60;9.20;;;;;13.50;102225.00;;;;5050297;28;20227;-79
2022/03/10 09:09:09;;;;;;;17.45;10.07;;;;;13.60;102221.00;;;;5046974;28;20199;-76
2022/03/10 09:11:38;;;;;;;15.82;9.45;;;;;13.70;102229.00;;;;5047407;28;20196;-82
2022/03/10 09:14:05;;;;;;;17.88;10.43;;;;;13.80;102223.00;;;;5045857;28;20688;-80
2022/03/10 09:16:33;;;;;;;13.93;8.63;;;;;13.90;102219.00;;;;5047959;28;20290;-80
2022/03/10 09:19:01;;;;;;;14.07;9.40;;;;;14.00;102228.00;;;;5047030;28;20227;-82
2022/03/10 09:21:28;;;;;;;15.93;9.80;;;;;14.10;102213.00;;;;5047151;28;20285;-82
2022/03/10 09:23:55;;;;;;;15.82;9.48;;;;;14.20;102219.00;;;;5052231;28;20211;-81
2022/03/10 09:26:23;;;;;;;15.75;8.57;;;;;14.30;102215.00;;;;5044872;28;20195;-81
2022/03/10 09:28:51;;;;;;;15.48;9.57;;;;;14.40;102214.00;;;;5047898;28;20282;-81
2022/03/10 09:31:19;;;;;;;13.15;8.77;;;;;14.50;102212.00;;;;5047567;28;20230;-81
2022/03/10 09:33:47;;;;;;;16.83;10.40;;;;;14.60;102208.00;;;;5047967;28;20215;-82
2022/03/10 09:36:15;;;;;;;14.68;9.27;;;;;14.70;102205.00;;;;5046803;28;20612;-81
2022/03/10 09:38:42;;;;;;;15.30;9.52;;;;;14.80;102208.00;;;;5047490;28;21051;-82
2022/03/10 09:41:10;;;;;;;15.48;9.13;;;;;14.90;102206.00;;;;5047201;28;20257;-81
2022/03/10 09:43:39;;;;;;;14.68;8.93;;;;;15.00;102207.00;;;;5046241;28;20195;-82
2022/03/10 09:46:08;;;;;;;14.45;8.73;;;;;15.10;102209.00;;;;5046127;28;20586;-82
2022/03/10 09:48:37;;;;;;;15.90;9.32;;;;;15.20;102203.00;;;;5045906;28;20211;-81
2022/03/10 09:51:05;;;;;;;16.75;10.02;;;;;15.40;102209.00;;;;5045447;28;20629;-82
2022/03/10 09:53:34;;;;;;;14.95;8.98;;;;;15.50;102198.00;;;;5046166;28;20218;-82
2022/03/10 09:56:02;;;;;;;15.63;9.82;;;;;15.60;102193.00;;;;5042604;28;20199;-82
2022/03/10 09:58:29;;;;;;;13.73;9.35;;;;;15.70;102192.00;;;;5027978;28;20322;-81
2022/03/10 10:01:00;;;;;;;15.30;9.48;;;;;15.80;102191.00;;;;5026678;28;20196;-82
2022/03/10 10:03:29;;;;;;;13.55;8.73;;;;;16.00;102189.00;;;;5025422;28;20196;-82
2022/03/10 10:06:00;;;;;;;13.15;8.77;;;;;16.10;102186.00;;;;5045048;28;20199;-81
2022/03/10 10:08:30;;;;;;;13.05;8.85;;;;;16.20;102189.00;;;;5045590;28;20261;-81
2022/03/10 10:10:59;;;;;;;15.07;9.23;;;;;16.40;102184.00;;;;5045907;28;20204;-81
2022/03/10 10:13:28;;;;;;;22.23;10.45;;;;;16.50;102190.00;;;;5045214;28;20515;-81
2022/03/10 10:15:57;;;;;;;15.70;8.90;;;;;16.60;102191.00;;;;5045966;28;20214;-81
2022/03/10 10:18:25;;;;;;;15.82;9.10;;;;;16.80;102196.00;;;;5047180;28;20216;-82
2022/03/10 10:20:55;;;;;;;15.10;9.32;;;;;16.90;102195.00;;;;5048629;28;20228;-80
2022/03/10 10:23:24;;;;;;;15.65;9.02;;;;;17.00;102192.00;;;;5050347;28;20561;-81
2022/03/10 10:25:57;;;;;;;15.50;9.80;;;;;17.00;102193.00;;;;5052005;28;20230;-80
2022/03/10 10:28:29;;;;;;;15.10;8.77;;;;;17.10;102187.00;;;;5051699;28;20207;-79
2022/03/10 10:30:59;;;;;;;13.32;9.20;;;;;17.30;102187.00;;;;5052064;28;20203;-80
2022/03/10 10:33:27;;;;;;;15.13;9.45;;;;;17.40;102192.00;;;;5063591;28;20203;-80
2022/03/10 10:36:18;;;;;;;11.73;8.55;;;;;17.30;102187.00;;;;5036254;28;20200;-78
2022/03/10 10:38:46;;;;;;;13.43;8.13;;;;;17.50;102190.00;;;;5040846;28;20237;-78
2022/03/10 10:41:22;;;;;;;13.15;8.82;;;;;17.60;102190.00;;;;5051099;28;20207;-78
2022/03/10 10:43:51;;;;;;;16.23;9.60;;;;;17.70;102187.00;;;;5039506;28;20211;-78
2022/03/10 10:46:31;;;;;;;13.95;9.32;;;;;17.80;102185.00;;;;5050124;28;20206;-77
2022/03/10 10:49:00;;;;;;;14.60;9.77;;;;;17.90;102191.00;;;;5052206;28;20195;-78
2022/03/10 10:51:36;;;;;;;15.77;10.32;;;;;18.00;102189.00;;;;5049971;28;20203;-79
2022/03/10 10:54:06;;;;;;;14.38;9.70;;;;;18.10;102191.00;;;;5046427;28;20203;-77
2022/03/10 10:56:34;;;;;;;13.75;9.57;;;;;18.20;102191.00;;;;5043744;28;20192;-76
2022/03/10 10:59:03;;;;;;;15.63;9.55;;;;;18.30;102188.00;;;;5041223;28;20223;-78
2022/03/10 11:01:32;;;;;;;16.17;10.13;;;;;18.40;102186.00;;;;5039350;28;20203;-78
2022/03/10 11:03:59;;;;;;;15.73;9.43;;;;;18.50;102177.00;;;;5031421;28;20226;-79
2022/03/10 11:06:28;;;;;;;14.43;9.13;;;;;18.70;102179.00;;;;5043993;28;20200;-79
2022/03/10 11:08:55;;;;;;;17.90;10.20;;;;;18.80;102178.00;;;;5043982;28;20203;-78
2022/03/10 11:11:23;;;;;;;15.10;9.88;;;;;18.90;102170.00;;;;5046953;28;20211;-81
2022/03/10 11:13:51;;;;;;;15.73;10.10;;;;;19.00;102167.00;;;;5046036;28;20193;-81
2022/03/10 11:16:20;;;;;;;20.80;11.52;;;;;19.00;102170.00;;;;5030755;28;20315;-82
2022/03/10 11:18:52;;;;;;;18.67;11.32;;;;;19.10;102165.00;;;;5035169;28;20589;-80
2022/03/10 11:21:42;;;;;;;14.13;9.07;;;;;19.10;102162.00;;;;5035147;28;20202;-81
2022/03/10 11:24:41;;;;;;;16.00;10.32;;;;;19.20;102165.00;;;;5030812;28;20246;-81
2022/03/10 11:27:13;;;;;;;19.15;10.32;;;;;19.30;102152.00;;;;5043268;28;20561;-81
2022/03/10 11:29:41;;;;;;;15.93;9.45;;;;;19.40;102152.00;;;;5034184;28;20200;-81
2022/03/10 11:32:10;;;;;;;13.32;9.10;;;;;19.50;102149.00;;;;5031301;28;20203;-80
2022/03/10 11:34:49;;;;;;;15.52;9.77;;;;;19.50;102151.00;;;;5033798;28;20200;-80
2022/03/10 11:37:51;;;;;;;15.65;9.95;;;;;19.60;102139.00;;;;5038194;28;20200;-80
2022/03/10 11:40:21;;;;;;;14.52;9.45;;;;;19.80;102148.00;;;;5030152;28;20691;-81
2022/03/10 11:43:01;;;;;;;16.65;10.85;;;;;19.80;102146.00;;;;5038287;28;20210;-81
2022/03/10 11:45:32;;;;;;;14.57;9.25;;;;;19.90;102136.00;;;;5032744;28;20300;-81
2022/03/10 11:48:33;;;;;;;17.70;10.82;;;;;19.90;102133.00;;;;5034232;28;20282;-81
2022/03/10 11:51:08;;;;;;;14.25;9.60;;;;;20.10;102134.00;;;;5037707;28;20197;-82
2022/03/10 11:53:59;;;;;;;15.82;10.38;;;;;20.10;102129.00;;;;5030357;28;20255;-83
2022/03/10 11:57:06;;;;;;;14.48;10.57;;;;;20.20;102118.00;;;;5038424;28;20206;-81
2022/03/10 11:59:53;;;;;;;15.05;10.18;;;;;20.20;102116.00;;;;5027595;28;20234;-81
2022/03/10 12:02:31;;;;;;;15.88;10.57;;;;;20.30;102107.00;;;;5039726;28;20219;-81
2022/03/10 12:04:59;;;;;;;15.50;9.88;;;;;20.40;102101.00;;;;5037987;28;20546;-81
2022/03/10 12:07:29;;;;;;;15.98;10.98;;;;;20.50;102110.00;;;;5041210;28;20654;-82
2022/03/10 12:10:06;;;;;;;15.57;9.43;;;;;20.50;102100.00;;;;5043740;28;20195;-80
2022/03/10 12:12:38;;;;;;;14.98;9.07;;;;;20.60;102093.00;;;;5034895;28;20200;-80
2022/03/10 12:15:51;;;;;;;13.93;9.50;;;;;20.60;102101.00;;;;5043365;28;20200;-80
2022/03/10 12:18:23;;;;;;;12.60;8.70;;;;;20.80;102091.00;;;;5032910;28;20578;-81
2022/03/10 12:20:54;;;;;;;14.45;9.63;;;;;20.80;102100.00;;;;5054148;28;20271;-80